Time;durP1;ratioP1;P1;durP2;ratioP2;P2;SDS_P1;SDS_P2;PMS_P1;PMS_P2;Temp;Humidity;BMP_temperature;BMP_pressure;BME280_temperature;BME280_humidity;BME280_pressure;Samples;Min_cycle;Max_cycle;Signal;HPM_P1;HPM_P2
2022/01/22 00:00:59;;;;;;;3.70;2.10;;;;;;;4.69;100.00;101904.33;107800;1281;59672;-70
2022/01/22 00:03:26;;;;;;;2.90;1.90;;;;;;;4.69;100.00;101899.98;107890;1281;75139;-73
2022/01/22 00:05:52;;;;;;;4.50;2.60;;;;;;;4.68;100.00;101894.40;107856;1281;58661;-73
2022/01/22 00:08:19;;;;;;;6.60;3.10;;;;;;;4.68;100.00;101899.85;107753;1281;58325;-70
2022/01/22 00:10:47;;;;;;;3.80;2.50;;;;;;;4.67;100.00;101907.10;107873;1280;62035;-73
2022/01/22 00:15:48;;;;;;;3.80;2.60;;;;;;;4.69;100.00;101905.60;107844;1281;75175;-70
2022/01/22 00:18:15;;;;;;;3.60;2.20;;;;;;;4.69;100.00;101902.27;107860;1280;71551;-72
2022/01/22 00:20:41;;;;;;;4.40;2.80;;;;;;;4.68;100.00;101905.67;107842;1280;73928;-71
2022/01/22 00:23:08;;;;;;;3.60;2.50;;;;;;;4.67;100.00;101897.10;107744;1281;58444;-73
2022/01/22 00:25:36;;;;;;;4.20;3.30;;;;;;;4.67;100.00;101898.86;107872;1280;58293;-74
2022/01/22 00:28:03;;;;;;;4.10;2.70;;;;;;;4.68;100.00;101896.04;107853;1281;73925;-70
2022/01/22 00:30:30;;;;;;;4.90;2.60;;;;;;;4.68;100.00;101900.73;107852;1280;70515;-73
2022/01/22 00:32:57;;;;;;;3.70;2.60;;;;;;;4.68;100.00;101903.19;107723;1281;72593;-71
2022/01/22 00:35:24;;;;;;;4.20;2.70;;;;;;;4.68;100.00;101896.00;107826;1281;61266;-71
2022/01/22 00:37:52;;;;;;;7.40;2.60;;;;;;;4.69;100.00;101892.06;107649;1281;59504;-70
2022/01/22 00:40:20;;;;;;;4.60;2.30;;;;;;;4.70;100.00;101902.73;107870;1281;75209;-71
2022/01/22 00:42:47;;;;;;;4.10;3.10;;;;;;;4.72;100.00;101897.34;107865;1281;72796;-72
2022/01/22 00:45:14;;;;;;;3.50;2.10;;;;;;;4.72;100.00;101901.17;107837;1281;73162;-73
2022/01/22 00:47:41;;;;;;;4.20;2.70;;;;;;;4.73;100.00;101901.61;107743;1281;62691;-71
2022/01/22 00:50:12;;;;;;;5.20;2.00;;;;;;;4.74;100.00;101902.43;107888;1280;60409;-74
2022/01/22 00:52:40;;;;;;;3.70;1.90;;;;;;;4.76;100.00;101906.13;107696;1281;75237;-71
2022/01/22 00:55:07;;;;;;;3.90;2.40;;;;;;;4.78;100.00;101907.61;107894;1281;71901;-72
2022/01/22 00:57:33;;;;;;;4.80;2.10;;;;;;;4.78;100.00;101903.20;107864;1280;73003;-71
2022/01/22 01:00:01;;;;;;;3.20;2.00;;;;;;;4.77;100.00;101907.10;107876;1281;62321;-70
2022/01/22 01:02:28;;;;;;;4.60;2.60;;;;;;;4.79;100.00;101899.98;107858;1280;60656;-73
2022/01/22 01:04:55;;;;;;;3.50;2.20;;;;;;;4.79;100.00;101913.30;107767;1281;74274;-71
2022/01/22 01:07:22;;;;;;;3.70;2.50;;;;;;;4.80;100.00;101911.33;107838;1281;71336;-72
2022/01/22 01:09:48;;;;;;;2.80;2.00;;;;;;;4.80;100.00;101906.89;107704;1281;71767;-71
2022/01/22 01:12:15;;;;;;;2.50;1.90;;;;;;;4.81;100.00;101921.04;107819;1281;62403;-73
2022/01/22 01:14:53;;;;;;;3.50;2.20;;;;;;;4.81;100.00;101907.16;107760;1281;61694;-72
2022/01/22 01:34:33;;;;;;;3.90;2.20;;;;;;;4.75;100.00;101915.00;107868;1280;70404;-73
2022/01/22 01:36:41;;;;;;;3.90;2.50;;;;;;;4.76;100.00;101910.73;107796;1279;74380;-72
2022/01/22 01:39:12;;;;;;;3.30;2.10;;;;;;;4.75;100.00;101925.12;107877;1280;61489;-75
2022/01/22 01:44:06;;;;;;;3.80;2.50;;;;;;;4.76;100.00;101911.23;107886;1281;58846;-71
2022/01/22 01:46:33;;;;;;;3.60;2.20;;;;;;;4.76;100.00;101919.80;107679;1279;71433;-74
2022/01/22 01:49:02;;;;;;;3.10;2.10;;;;;;;4.77;100.00;101911.35;107876;1278;72982;-73
2022/01/22 01:51:31;;;;;;;6.10;2.90;;;;;;;4.77;100.00;101913.30;107903;1279;61137;-73
2022/01/22 01:54:08;;;;;;;3.70;2.00;;;;;;;4.77;100.00;101906.58;107881;1281;60597;-73
2022/01/22 01:59:19;;;;;;;4.40;2.70;;;;;;;4.77;100.00;101905.91;107880;1280;71369;-74
2022/01/22 02:01:46;;;;;;;4.30;2.70;;;;;;;4.78;100.00;101899.38;107766;1281;58368;-73
2022/01/22 02:04:13;;;;;;;5.10;2.70;;;;;;;4.77;100.00;101900.08;107650;1281;61455;-72
2022/01/22 02:06:41;;;;;;;3.60;2.30;;;;;;;4.78;100.00;101901.44;107866;1281;62212;-73
2022/01/22 02:09:09;;;;;;;4.70;2.70;;;;;;;4.79;100.00;101902.40;107898;1279;74159;-72
2022/01/22 02:11:38;;;;;;;3.30;2.10;;;;;;;4.81;100.00;101894.94;107897;1279;71420;-74
2022/01/22 02:25:08;;;;;;;2.90;1.90;;;;;;;4.90;100.00;101914.96;107679;1281;70146;-76
2022/01/22 02:27:35;;;;;;;4.40;2.30;;;;;;;4.91;100.00;101926.83;107741;1281;72950;-72
2022/01/22 02:30:03;;;;;;;4.80;2.50;;;;;;;4.93;100.00;101927.60;107899;1279;61731;-72
2022/01/22 02:32:52;;;;;;;5.90;2.80;;;;;;;4.94;100.00;101933.13;107901;1279;60620;-72
2022/01/22 02:35:30;;;;;;;3.10;1.80;;;;;;;4.95;100.00;101942.33;107749;1281;74208;-72
2022/01/22 02:38:06;;;;;;;2.70;1.70;;;;;;;4.96;100.00;101931.93;107884;1279;70046;-73
2022/01/22 02:40:41;;;;;;;3.30;2.10;;;;;;;4.96;100.00;101932.80;107722;1281;73399;-75
2022/01/22 02:43:10;;;;;;;;;;;;;;;4.97;100.00;101930.09;107907;1279;62902;-75
2022/01/22 02:45:36;;;;;;;4.70;1.90;;;;;;;4.97;100.00;101934.65;107884;1281;59524;-76
2022/01/22 02:48:03;;;;;;;5.40;2.50;;;;;;;4.98;100.00;101935.83;107746;1281;74176;-74
2022/01/22 02:50:30;;;;;;;4.00;1.60;;;;;;;4.99;100.00;101945.59;107895;1280;70350;-73
2022/01/22 02:53:01;;;;;;;5.70;2.70;;;;;;;4.99;100.00;101948.20;107910;1278;72971;-73
2022/01/22 02:55:31;;;;;;;3.00;1.50;;;;;;;5.01;100.00;101943.88;107897;1281;62396;-75
2022/01/22 02:57:58;;;;;;;4.40;2.30;;;;;;;5.00;100.00;101945.83;107897;1281;60602;-74
2022/01/22 03:00:26;;;;;;;4.80;2.40;;;;;;;5.00;100.00;101938.34;107767;1280;74139;-75
2022/01/22 03:02:53;;;;;;;2.60;1.40;;;;;;;4.99;100.00;101945.37;107897;1281;72359;-74
2022/01/22 03:05:23;;;;;;;3.10;1.60;;;;;;;4.99;100.00;101956.05;107897;1281;73967;-76
2022/01/22 03:07:53;;;;;;;3.30;2.00;;;;;;;5.00;100.00;101959.00;107729;1279;61509;-75
2022/01/22 03:10:23;;;;;;;4.10;2.00;;;;;;;5.00;100.00;101957.39;107758;1281;60000;-74
2022/01/22 03:13:11;;;;;;;4.10;1.90;;;;;;;5.01;100.00;101971.86;107874;1279;74143;-76
2022/01/22 03:18:16;;;;;;;4.70;1.90;;;;;;;5.03;100.00;101970.73;107894;1279;72925;-73
2022/01/22 03:31:49;;;;;;;3.70;2.00;;;;;;;5.02;100.00;101978.98;107522;1279;72770;-75
2022/01/22 03:34:15;;;;;;;4.40;2.40;;;;;;;5.03;100.00;101975.06;107921;1280;62262;-72
2022/01/22 03:36:42;;;;;;;4.80;2.50;;;;;;;5.03;100.00;101981.73;107891;1279;60414;-73
2022/01/22 03:39:09;;;;;;;6.00;2.20;;;;;;;5.04;100.00;101976.25;107931;1279;74265;-76
2022/01/22 03:41:36;;;;;;;3.40;2.10;;;;;;;5.04;100.00;101984.48;107911;1279;71433;-72
2022/01/22 03:44:05;;;;;;;4.40;1.90;;;;;;;5.04;100.00;101993.64;107951;1280;73152;-74
2022/01/22 03:46:32;;;;;;;7.20;2.50;;;;;;;5.05;100.00;101997.41;107637;1281;62402;-74
2022/01/22 03:48:59;;;;;;;4.00;1.70;;;;;;;5.04;100.00;101994.88;107958;1280;59576;-74
2022/01/22 03:51:26;;;;;;;3.10;1.50;;;;;;;5.02;100.00;101991.96;107843;1279;74244;-74
2022/01/22 03:53:52;;;;;;;4.60;1.70;;;;;;;5.02;100.00;101993.92;107954;1281;72050;-73
2022/01/22 03:56:20;;;;;;;8.00;2.50;;;;;;;5.03;100.00;101995.29;107701;1281;74147;-71
2022/01/22 03:58:46;;;;;;;4.20;2.00;;;;;;;5.02;100.00;102004.76;107962;1280;63280;-71
2022/01/22 04:01:42;;;;;;;4.30;2.10;;;;;;;5.02;100.00;101997.77;107966;1279;62329;-73
2022/01/22 04:04:11;;;;;;;3.90;1.70;;;;;;;5.02;100.00;102004.45;107869;1280;73851;-72
2022/01/22 04:09:26;;;;;;;7.40;1.70;;;;;;;5.01;100.00;101990.31;107932;1281;72945;-71
2022/01/22 04:11:54;;;;;;;6.70;1.90;;;;;;;5.00;100.00;101984.07;107934;1279;61569;-73
2022/01/22 04:14:26;;;;;;;3.30;1.70;;;;;;;4.99;100.00;101979.92;107467;1281;60777;-73
2022/01/22 04:25:21;;;;;;;3.50;1.80;;;;;;;4.98;100.00;101985.62;107904;1279;62916;-75
2022/01/22 04:27:48;;;;;;;3.20;1.60;;;;;;;4.98;100.00;101993.52;107900;1281;60471;-72
2022/01/22 04:30:15;;;;;;;4.00;2.00;;;;;;;4.99;100.00;101993.13;107914;1280;74210;-71
2022/01/22 04:32:42;;;;;;;3.80;1.90;;;;;;;4.98;100.00;101989.11;107833;1281;70951;-71
2022/01/22 04:35:09;;;;;;;5.20;1.70;;;;;;;4.98;100.00;101994.73;107984;1280;73985;-72
2022/01/22 04:37:35;;;;;;;3.90;1.20;;;;;;;4.98;100.00;101998.23;107587;1279;61241;-71
2022/01/22 04:40:02;;;;;;;5.00;1.70;;;;;;;4.98;100.00;101994.59;107975;1280;61857;-71
2022/01/22 04:42:32;;;;;;;5.70;2.20;;;;;;;4.97;100.00;101990.92;107966;1280;75187;-71
2022/01/22 04:45:09;;;;;;;4.10;1.40;;;;;;;4.97;100.00;101993.36;107976;1281;72452;-71
2022/01/22 04:55:39;;;;;;;4.70;1.80;;;;;;;4.99;100.00;102007.64;107862;1281;74078;-73
2022/01/22 04:58:07;;;;;;;4.80;2.10;;;;;;;5.00;100.00;102012.15;107979;1279;72495;-73
2022/01/22 05:00:37;;;;;;;11.90;3.10;;;;;;;5.01;100.00;102015.69;107980;1280;74160;-72
2022/01/22 05:03:05;;;;;;;8.20;3.00;;;;;;;5.04;100.00;102019.38;107835;1281;61582;-74
2022/01/22 05:05:32;;;;;;;8.20;2.80;;;;;;;5.06;100.00;102026.45;107846;1280;61347;-73
2022/01/22 05:07:58;;;;;;;6.10;1.80;;;;;;;5.08;100.00;102024.88;107867;1280;74134;-73
2022/01/22 05:10:25;;;;;;;5.10;2.00;;;;;;;5.11;100.00;102025.73;108004;1281;72502;-72
2022/01/22 05:12:53;;;;;;;6.70;2.10;;;;;;;5.13;100.00;102021.94;107971;1279;74088;-72
2022/01/22 05:15:21;;;;;;;7.00;2.20;;;;;;;5.14;100.00;102023.91;108006;1281;62327;-71
2022/01/22 05:17:48;;;;;;;1.90;1.00;;;;;;;5.16;100.00;102022.02;107847;1281;60773;-71
2022/01/22 05:25:40;;;;;;;3.80;1.40;;;;;;;5.22;100.00;102024.81;107991;1280;73811;-74
2022/01/22 05:38:22;;;;;;;2.80;1.10;;;;;;;5.31;100.00;102039.41;107974;1279;74048;-74
2022/01/22 05:40:49;;;;;;;3.40;1.50;;;;;;;5.32;100.00;102040.23;107945;1279;61874;-74
2022/01/22 05:43:16;;;;;;;2.30;1.10;;;;;;;5.33;100.00;102050.70;107989;1279;60842;-72
2022/01/22 05:45:43;;;;;;;1.60;0.80;;;;;;;5.34;100.00;102055.33;107993;1280;74382;-71
2022/01/22 05:48:09;;;;;;;2.50;1.20;;;;;;;5.34;100.00;102059.92;107971;1279;72399;-74
2022/01/22 05:50:48;;;;;;;2.80;1.10;;;;;;;5.36;100.00;102054.89;107960;1280;58363;-71
2022/01/22 05:53:32;;;;;;;5.50;1.40;;;;;;;5.37;100.00;102054.80;107970;1277;62989;-75
2022/01/22 06:01:21;;;;;;;3.00;1.20;;;;;;;5.38;100.00;102063.51;107967;1279;72495;-71
2022/01/22 06:03:47;;;;;;;2.30;1.30;;;;;;;5.40;100.00;102064.10;107956;1280;73744;-72
2022/01/22 06:06:14;;;;;;;3.70;1.40;;;;;;;5.39;100.00;102067.42;107965;1280;62358;-71
2022/01/22 06:08:47;;;;;;;2.90;1.20;;;;;;;5.40;100.00;102071.11;107694;1281;58124;-72
2022/01/22 06:11:22;;;;;;;2.70;0.90;;;;;;;5.40;100.00;102076.66;107980;1279;75105;-73
2022/01/22 06:13:49;;;;;;;2.00;0.90;;;;;;;5.41;100.00;102083.28;107851;1281;71512;-74
2022/01/22 06:16:19;;;;;;;3.20;1.40;;;;;;;5.41;100.00;102084.86;107982;1279;73344;-74
2022/01/22 06:18:46;;;;;;;1.70;0.70;;;;;;;5.41;100.00;102086.96;107944;1281;62019;-71
2022/01/22 06:21:12;;;;;;;2.40;0.90;;;;;;;5.41;100.00;102089.58;107838;1280;60854;-75
2022/01/22 06:23:40;;;;;;;1.70;0.90;;;;;;;5.41;100.00;102092.92;107698;1281;74251;-71
2022/01/22 06:26:08;;;;;;;3.10;1.10;;;;;;;5.40;100.00;102094.04;107953;1281;72690;-71
2022/01/22 06:28:36;;;;;;;2.50;0.90;;;;;;;5.40;100.00;102090.70;107961;1281;73076;-72
2022/01/22 06:31:03;;;;;;;6.50;1.60;;;;;;;5.40;100.00;102097.73;107968;1280;62815;-72
2022/01/22 06:33:30;;;;;;;3.70;1.30;;;;;;;5.40;100.00;102101.24;107833;1279;60737;-74
2022/01/22 06:35:57;;;;;;;3.80;1.50;;;;;;;5.38;100.00;102106.46;107991;1277;74087;-72
2022/01/22 06:38:23;;;;;;;4.60;2.10;;;;;;;5.36;100.00;102106.10;107693;1279;71493;-71
2022/01/22 06:43:35;;;;;;;2.40;1.20;;;;;;;5.34;100.00;102114.27;107942;1280;62472;-73
2022/01/22 06:46:01;;;;;;;5.00;1.80;;;;;;;5.31;100.00;102118.15;107989;1279;61647;-72
2022/01/22 06:48:28;;;;;;;6.00;2.00;;;;;;;5.30;100.00;102116.27;107955;1279;75101;-72
2022/01/22 06:50:55;;;;;;;3.00;1.30;;;;;;;5.30;100.00;102123.86;107975;1279;58246;-73
2022/01/22 06:53:22;;;;;;;3.30;1.30;;;;;;;5.30;100.00;102127.34;107943;1279;73222;-71
2022/01/22 06:56:07;;;;;;;2.80;1.10;;;;;;;5.30;100.00;102125.63;107960;1279;58281;-71
2022/01/22 06:58:33;;;;;;;4.00;1.90;;;;;;;5.30;100.00;102128.09;107971;1279;59738;-73
2022/01/22 07:01:00;;;;;;;8.90;2.10;;;;;;;5.31;100.00;102132.91;107974;1279;75197;-72
2022/01/22 07:03:27;;;;;;;4.10;1.70;;;;;;;5.34;100.00;102138.89;107972;1279;71747;-72
2022/01/22 07:05:53;;;;;;;3.90;1.70;;;;;;;5.36;100.00;102139.80;107940;1280;73980;-73
2022/01/22 07:08:20;;;;;;;3.60;1.60;;;;;;;5.36;100.00;102142.77;107953;1279;61106;-73
2022/01/22 07:10:46;;;;;;;4.40;1.70;;;;;;;5.37;100.00;102138.50;107840;1281;58461;-72
2022/01/22 07:13:13;;;;;;;4.50;1.60;;;;;;;5.37;100.00;102147.79;107924;1279;75249;-72
2022/01/22 07:15:40;;;;;;;5.70;1.70;;;;;;;5.38;100.00;102145.24;107867;1280;71193;-72
2022/01/22 07:18:07;;;;;;;3.50;1.40;;;;;;;5.39;100.00;102145.87;107854;1281;73102;-73
2022/01/22 07:20:39;;;;;;;3.10;1.20;;;;;;;5.39;100.00;102155.52;107922;1280;62200;-72
2022/01/22 07:25:40;;;;;;;6.20;1.80;;;;;;;5.39;100.00;102158.55;107817;1280;74216;-72
2022/01/22 07:28:06;;;;;;;4.20;1.60;;;;;;;5.39;100.00;102155.23;107760;1280;244262;-74
2022/01/22 07:30:33;;;;;;;4.20;1.50;;;;;;;5.39;100.00;102160.23;107921;1279;72916;-73
2022/01/22 07:33:00;;;;;;;5.30;1.90;;;;;;;5.39;100.00;102158.20;107924;1280;62287;-72
2022/01/22 07:35:26;;;;;;;4.00;1.70;;;;;;;5.40;100.00;102161.77;107826;1281;58234;-74
2022/01/22 07:37:53;;;;;;;4.40;1.90;;;;;;;5.40;100.00;102156.00;107912;1280;75463;-73
2022/01/22 07:40:19;;;;;;;5.50;1.60;;;;;;;5.40;100.00;102159.66;107925;1280;57665;-72
2022/01/22 07:42:46;;;;;;;7.40;2.00;;;;;;;5.41;100.00;102161.02;107908;1280;74071;-71
2022/01/22 07:45:12;;;;;;;3.50;1.60;;;;;;;5.41;100.00;102163.81;107923;1279;63855;-72
2022/01/22 07:47:39;;;;;;;3.20;1.60;;;;;;;5.42;100.00;102161.15;107920;1280;60523;-74
2022/01/22 07:50:07;;;;;;;3.50;1.60;;;;;;;5.42;100.00;102164.64;107929;1281;75390;-75
2022/01/22 07:52:33;;;;;;;2.50;1.20;;;;;;;5.42;100.00;102165.70;107923;1281;71379;-74
2022/01/22 07:55:00;;;;;;;6.00;1.60;;;;;;;5.41;100.00;102164.48;107806;1281;58787;-72
2022/01/22 07:57:27;;;;;;;4.20;1.40;;;;;;;5.42;100.00;102165.34;107898;1280;62328;-73
2022/01/22 07:59:54;;;;;;;4.90;1.80;;;;;;;5.43;100.00;102171.79;107940;1279;60744;-72
2022/01/22 08:02:21;;;;;;;2.90;1.60;;;;;;;5.43;100.00;102173.46;107901;1281;75383;-72
2022/01/22 08:04:47;;;;;;;3.00;1.50;;;;;;;5.43;100.00;102165.79;107911;1280;71441;-74
2022/01/22 08:07:14;;;;;;;3.40;1.80;;;;;;;5.45;100.00;102165.85;107831;1281;74196;-74
2022/01/22 08:09:44;;;;;;;5.10;1.50;;;;;;;5.45;100.00;102164.79;107904;1279;63129;-74
2022/01/22 08:12:10;;;;;;;5.80;1.50;;;;;;;5.44;100.00;102169.23;107937;1279;60663;-73
2022/01/22 08:14:37;;;;;;;3.90;1.70;;;;;;;5.44;100.00;102164.14;107934;1280;75216;-74
2022/01/22 08:17:08;;;;;;;5.70;2.80;;;;;;;5.44;100.00;102168.16;107839;1281;72133;-75
2022/01/22 08:19:35;;;;;;;5.10;2.00;;;;;;;5.43;100.00;102178.05;107938;1280;74025;-76
2022/01/22 08:22:02;;;;;;;6.40;1.80;;;;;;;5.42;100.00;102180.59;107755;1281;61255;-75
2022/01/22 08:24:28;;;;;;;8.20;2.70;;;;;;;5.41;100.00;102180.50;107928;1280;61818;-72
2022/01/22 08:29:33;;;;;;;7.90;3.30;;;;;;;5.38;100.00;102185.61;107849;1281;72613;-73
2022/01/22 08:37:30;;;;;;;4.40;2.00;;;;;;;5.32;100.00;102189.70;107936;1280;60556;-73
2022/01/22 08:39:57;;;;;;;5.60;2.10;;;;;;;5.30;100.00;102196.46;107928;1279;75315;-74
2022/01/22 08:42:24;;;;;;;7.00;2.40;;;;;;;5.30;100.00;102197.89;107815;1280;57918;-74
2022/01/22 08:44:51;;;;;;;6.40;2.80;;;;;;;5.28;100.00;102196.05;107833;1279;74407;-72
2022/01/22 08:47:19;;;;;;;9.00;2.70;;;;;;;5.28;100.00;102198.67;107895;1281;63158;-72
2022/01/22 08:49:45;;;;;;;6.10;2.20;;;;;;;5.28;100.00;102194.16;107908;1279;60341;-74
2022/01/22 08:52:14;;;;;;;6.10;2.90;;;;;;;5.27;100.00;102196.83;107800;1281;74194;-72
2022/01/22 08:54:42;;;;;;;7.50;2.70;;;;;;;5.27;100.00;102200.69;107918;1279;72622;-71
2022/01/22 08:57:10;;;;;;;11.10;3.30;;;;;;;5.28;100.00;102198.85;107838;1280;73021;-74
2022/01/22 08:59:37;;;;;;;7.30;2.70;;;;;;;5.32;100.00;102201.98;107928;1279;63212;-72
2022/01/22 09:02:05;;;;;;;9.40;3.00;;;;;;;5.35;100.00;102201.94;107827;1280;60302;-74
2022/01/22 09:04:32;;;;;;;5.70;2.60;;;;;;;5.37;100.00;102205.83;107932;1279;73927;-72
2022/01/22 09:07:00;;;;;;;5.80;2.60;;;;;;;5.40;100.00;102209.70;107926;1281;72559;-72
2022/01/22 09:09:27;;;;;;;4.30;2.20;;;;;;;5.40;100.00;102211.73;107915;1281;72980;-72
2022/01/22 09:11:57;;;;;;;6.00;2.80;;;;;;;5.42;100.00;102215.48;107812;1280;62469;-72
2022/01/22 09:14:24;;;;;;;12.00;3.30;;;;;;;5.43;100.00;102220.70;107838;1281;61665;-71
2022/01/22 09:16:52;;;;;;;7.70;3.50;;;;;;;5.43;100.00;102221.92;107891;1280;74288;-71
2022/01/22 09:19:22;;;;;;;6.80;2.80;;;;;;;5.43;100.00;102222.97;107802;1281;71405;-72
2022/01/22 09:21:49;;;;;;;7.50;2.70;;;;;;;5.42;100.00;102224.46;107872;1280;70744;-71
2022/01/22 09:24:16;;;;;;;5.90;3.10;;;;;;;5.40;100.00;102228.61;107877;1280;63842;-74
2022/01/22 09:26:44;;;;;;;5.30;2.40;;;;;;;5.39;100.00;102227.27;107896;1281;61642;-74
2022/01/22 09:29:10;;;;;;;13.30;4.30;;;;;;;5.38;100.00;102228.77;107824;1281;75209;-73
2022/01/22 09:31:37;;;;;;;10.50;4.10;;;;;;;5.37;100.00;102229.01;107916;1281;71542;-74
2022/01/22 09:34:04;;;;;;;5.80;2.30;;;;;;;5.38;100.00;102223.38;107801;1280;72909;-74
2022/01/22 09:36:32;;;;;;;8.70;4.20;;;;;;;5.37;100.00;102224.98;107737;1280;62406;-72
2022/01/22 09:38:59;;;;;;;12.00;4.10;;;;;;;5.37;100.00;102231.29;107912;1280;61625;-74
2022/01/22 09:41:28;;;;;;;7.40;2.90;;;;;;;5.38;100.00;102235.80;107773;1281;58365;-73
2022/01/22 09:43:56;;;;;;;7.60;3.20;;;;;;;5.39;100.00;102242.02;107900;1280;71388;-74
2022/01/22 09:46:25;;;;;;;5.80;2.30;;;;;;;5.39;100.00;102239.02;107869;1280;72777;-74
2022/01/22 09:48:53;;;;;;;3.40;1.90;;;;;;;5.42;100.00;102242.87;107892;1280;63539;-74
2022/01/22 09:51:20;;;;;;;5.00;2.40;;;;;;;5.43;100.00;102244.36;107901;1280;60596;-74
2022/01/22 09:53:47;;;;;;;4.80;2.90;;;;;;;5.44;100.00;102246.75;107715;1281;74151;-73
2022/01/22 09:56:19;;;;;;;4.10;2.00;;;;;;;5.48;100.00;102248.63;107902;1281;72539;-73
2022/01/22 09:58:45;;;;;;;7.00;2.80;;;;;;;5.50;100.00;102253.90;107873;1281;74229;-74
2022/01/22 10:01:22;;;;;;;7.30;3.00;;;;;;;5.53;100.00;102251.27;107928;1279;60766;-73
2022/01/22 10:03:51;;;;;;;7.60;2.40;;;;;;;5.55;100.00;102251.48;107915;1281;60639;-73
2022/01/22 10:06:20;;;;;;;6.90;3.20;;;;;;;5.59;100.00;102253.29;107826;1280;75183;-73
2022/01/22 10:08:47;;;;;;;6.30;2.40;;;;;;;5.62;100.00;102251.02;107933;1279;70968;-75
2022/01/22 10:11:20;;;;;;;4.10;2.60;;;;;;;5.66;100.00;102253.02;107936;1279;74044;-74
2022/01/22 10:13:58;;;;;;;9.00;2.70;;;;;;;5.70;100.00;102255.20;107911;1280;62397;-75
2022/01/22 10:16:31;;;;;;;9.40;2.00;;;;;;;5.75;100.00;102255.52;107963;1279;60652;-75
2022/01/22 10:19:16;;;;;;;5.10;2.10;;;;;;;5.83;100.00;102256.08;107821;1279;75186;-74
2022/01/22 10:21:48;;;;;;;6.20;2.10;;;;;;;5.88;100.00;102253.45;107958;1279;72474;-73
2022/01/22 10:24:34;;;;;;;7.30;1.70;;;;;;;5.92;100.00;102249.46;107809;1280;72992;-75
2022/01/22 10:27:39;;;;;;;7.20;2.20;;;;;;;5.97;100.00;102248.64;107958;1279;63023;-74
2022/01/22 10:30:10;;;;;;;7.50;2.20;;;;;;;5.99;100.00;102253.77;107880;1279;60562;-73
2022/01/22 10:32:53;;;;;;;5.00;1.80;;;;;;;6.01;100.00;102250.98;107748;1281;74309;-75
2022/01/22 10:35:25;;;;;;;3.50;1.40;;;;;;;6.06;100.00;102250.45;107790;1281;73612;-75
2022/01/22 10:38:12;;;;;;;6.60;2.10;;;;;;;6.14;100.00;102249.02;107848;1279;74816;-75
2022/01/22 10:40:40;;;;;;;6.60;2.20;;;;;;;6.17;100.00;102253.20;107789;1280;63048;-74
2022/01/22 10:43:25;;;;;;;7.60;2.40;;;;;;;6.19;100.00;102248.49;107945;1279;60557;-75
2022/01/22 10:48:39;;;;;;;7.20;2.40;;;;;;;6.25;100.00;102253.23;107989;1279;72778;-75
2022/01/22 10:51:14;;;;;;;5.10;2.20;;;;;;;6.27;100.00;102257.95;107566;1281;74225;-75
2022/01/22 10:53:48;;;;;;;;;;;;;;;6.26;100.00;102258.73;107980;1279;61948;-75
2022/01/22 10:56:18;;;;;;;5.40;2.50;;;;;;;6.25;100.00;102256.14;107923;1279;60597;-75
2022/01/22 10:59:00;;;;;;;4.50;1.30;;;;;;;6.27;100.00;102256.20;107709;1281;72810;-75
2022/01/22 11:01:28;;;;;;;7.20;1.80;;;;;;;6.24;100.00;102263.63;107954;1281;71329;-74
2022/01/22 11:04:10;;;;;;;3.50;1.80;;;;;;;6.23;100.00;102278.30;107963;1279;72955;-75
2022/01/22 11:06:49;;;;;;;3.50;1.60;;;;;;;6.22;100.00;102271.83;107555;1281;62284;-74
2022/01/22 11:09:36;;;;;;;4.80;1.20;;;;;;;6.22;100.00;102271.50;107851;1281;61438;-76
2022/01/22 11:12:05;;;;;;;3.80;1.60;;;;;;;6.20;100.00;102278.83;107787;1281;74792;-76
2022/01/22 11:14:33;;;;;;;2.30;1.40;;;;;;;6.20;100.00;102280.91;107857;1281;71095;-75
2022/01/22 11:17:00;;;;;;;3.50;1.10;;;;;;;6.23;100.00;102282.30;107823;1281;72729;-75
2022/01/22 11:19:32;;;;;;;8.10;3.10;;;;;;;6.25;100.00;102284.83;107773;1280;62323;-75
2022/01/22 11:22:11;;;;;;;7.30;2.20;;;;;;;6.25;100.00;102283.02;107770;1280;60812;-75
2022/01/22 11:24:41;;;;;;;2.30;1.30;;;;;;;6.22;100.00;102287.80;107807;1281;75234;-75
2022/01/22 11:27:10;;;;;;;4.60;1.70;;;;;;;6.18;100.00;102284.58;107798;1281;71586;-75
2022/01/22 11:29:45;;;;;;;4.90;2.00;;;;;;;6.17;100.00;102282.05;107884;1281;73029;-74
2022/01/22 11:32:13;;;;;;;;;;;;;;;6.16;100.00;102281.76;107924;1280;62399;-75
2022/01/22 11:34:42;;;;;;;2.50;1.20;;;;;;;6.12;100.00;102278.81;107942;1279;60380;-74
2022/01/22 11:37:20;;;;;;;2.40;1.10;;;;;;;6.09;100.00;102278.16;107816;1281;75135;-76
2022/01/22 11:40:08;;;;;;;2.70;1.20;;;;;;;6.06;100.00;102276.46;107932;1281;71621;-75
2022/01/22 11:43:11;;;;;;;2.50;1.60;;;;;;;6.03;100.00;102281.61;107905;1281;72745;-75
2022/01/22 11:45:41;;;;;;;2.40;1.30;;;;;;;6.01;100.00;102278.73;107912;1280;63333;-75
2022/01/22 11:48:15;;;;;;;3.80;1.40;;;;;;;5.99;100.00;102278.20;107946;1281;60302;-76
2022/01/22 11:50:45;;;;;;;4.20;1.40;;;;;;;5.98;100.00;102281.92;107939;1279;75464;-75
2022/01/22 11:53:32;;;;;;;3.60;1.50;;;;;;;5.97;100.00;102282.68;107992;1281;71886;-76
2022/01/22 11:56:11;;;;;;;3.90;1.60;;;;;;;5.98;100.00;102278.61;107925;1279;73836;-75
2022/01/22 11:58:56;;;;;;;4.00;1.80;;;;;;;5.96;100.00;102283.34;107948;1280;63305;-75
2022/01/22 12:01:38;;;;;;;3.70;2.10;;;;;;;5.90;100.00;102287.33;107940;1279;60268;-75
2022/01/22 12:04:07;;;;;;;4.20;2.00;;;;;;;5.88;100.00;102289.27;107832;1281;73338;-73
2022/01/22 12:07:00;;;;;;;3.40;2.40;;;;;;;5.87;100.00;102285.98;107979;1279;72507;-74
2022/01/22 12:15:30;;;;;;;3.80;1.90;;;;;;;5.88;100.00;102301.71;107606;1281;60578;-74
2022/01/22 12:18:14;;;;;;;3.20;2.10;;;;;;;5.88;100.00;102299.09;107887;1280;76202;-75
2022/01/22 12:23:29;;;;;;;4.30;2.40;;;;;;;5.89;100.00;102301.11;107931;1279;73103;-75
2022/01/22 12:26:05;;;;;;;4.40;2.40;;;;;;;5.89;100.00;102298.99;107908;1280;62970;-74
2022/01/22 12:28:39;;;;;;;4.30;2.40;;;;;;;5.89;100.00;102297.27;107763;1280;60612;-76
2022/01/22 12:31:16;;;;;;;4.30;2.30;;;;;;;5.90;100.00;102296.13;107850;1280;73952;-76
2022/01/22 12:33:53;;;;;;;4.70;2.60;;;;;;;5.93;100.00;102293.30;107766;1281;73979;-76
2022/01/22 12:36:27;;;;;;;3.70;2.20;;;;;;;5.98;100.00;102288.63;107707;1281;74155;-76
2022/01/22 12:39:04;;;;;;;;;;;;;;;6.00;100.00;102295.98;107930;1280;63769;-75
2022/01/22 12:41:36;;;;;;;3.50;1.90;;;;;;;6.07;100.00;102297.59;107936;1281;60189;-75
2022/01/22 12:44:04;;;;;;;3.90;1.90;;;;;;;6.16;100.00;102296.16;107936;1280;75226;-75
2022/01/22 12:46:49;;;;;;;3.20;1.70;;;;;;;6.21;100.00;102290.54;107942;1280;72013;-74
2022/01/22 12:49:17;;;;;;;2.90;1.70;;;;;;;6.22;100.00;102291.69;107911;1281;74192;-73
2022/01/22 12:51:44;;;;;;;2.40;1.30;;;;;;;6.24;100.00;102292.81;107762;1281;63587;-75
2022/01/22 12:54:10;;;;;;;4.50;1.80;;;;;;;6.21;100.00;102293.70;107939;1280;58244;-73
2022/01/22 12:57:12;;;;;;;3.60;2.00;;;;;;;6.19;100.00;102287.86;107965;1278;75094;-75
2022/01/22 12:59:49;;;;;;;5.90;1.90;;;;;;;6.17;100.00;102283.94;107937;1280;72140;-75
2022/01/22 13:02:36;;;;;;;2.50;1.40;;;;;;;6.15;100.00;102286.23;107800;1281;74130;-74
2022/01/22 13:05:04;;;;;;;2.40;1.70;;;;;;;6.10;100.00;102285.14;107949;1281;61709;-75
2022/01/22 13:07:43;;;;;;;3.80;1.90;;;;;;;6.07;100.00;102286.02;107931;1281;62200;-75
2022/01/22 13:10:10;;;;;;;4.40;2.20;;;;;;;6.04;100.00;102284.63;107946;1281;75135;-75
2022/01/22 13:12:42;;;;;;;3.10;1.80;;;;;;;6.01;100.00;102280.48;107939;1280;72516;-76
2022/01/22 13:15:10;;;;;;;3.20;1.70;;;;;;;5.98;100.00;102284.08;107848;1280;73085;-74
2022/01/22 13:17:39;;;;;;;4.50;1.60;;;;;;;5.97;100.00;102285.30;107921;1281;61746;-74
2022/01/22 13:20:07;;;;;;;3.50;1.70;;;;;;;5.98;100.00;102281.09;107928;1281;61592;-75
2022/01/22 13:22:36;;;;;;;2.60;1.20;;;;;;;5.99;100.00;102286.80;107944;1280;73941;-73
2022/01/22 13:25:12;;;;;;;2.60;1.10;;;;;;;6.01;100.00;102287.55;107940;1281;71196;-75